Time;durP1;ratioP1;P1;durP2;ratioP2;P2;SDS_P1;SDS_P2;PMS_P1;PMS_P2;Temp;Humidity;BMP_temperature;BMP_pressure;BME280_temperature;BME280_humidity;BME280_pressure;Samples;Min_cycle;Max_cycle;Signal;HPM_P1;HPM_P2
2021/09/28 00:00:31;;;;;;;22.15;9.13;;;11.70;99.90;;;;;;5072616;28;20024;-56
2021/09/28 00:02:57;;;;;;;21.30;8.73;;;11.70;99.90;;;;;;5048040;28;20397;-58
2021/09/28 00:05:23;;;;;;;24.65;9.68;;;11.60;99.90;;;;;;5063734;28;20029;-58
2021/09/28 00:07:48;;;;;;;22.65;10.05;;;11.60;99.90;;;;;;5058399;28;20103;-57
2021/09/28 00:10:14;;;;;;;46.20;13.63;;;11.50;99.90;;;;;;5069724;28;20043;-57
2021/09/28 00:12:40;;;;;;;27.83;12.07;;;11.50;99.90;;;;;;5066975;28;20506;-57
2021/09/28 00:15:08;;;;;;;37.17;10.25;;;11.40;99.90;;;;;;5070971;28;20029;-57
2021/09/28 00:17:33;;;;;;;101.15;13.60;;;11.40;99.90;;;;;;5071080;28;20060;-56
2021/09/28 00:19:59;;;;;;;33.33;11.73;;;11.30;99.90;;;;;;5068906;28;20516;-59
2021/09/28 00:22:25;;;;;;;53.78;11.68;;;11.30;99.90;;;;;;5060840;28;20024;-56
2021/09/28 00:24:50;;;;;;;36.70;10.25;;;11.20;99.90;;;;;;5055545;28;20076;-60
2021/09/28 00:27:16;;;;;;;29.90;10.57;;;11.20;99.90;;;;;;5060540;28;20079;-59
2021/09/28 00:29:42;;;;;;;17.00;10.15;;;11.10;99.90;;;;;;5064213;28;20047;-57
2021/09/28 00:32:07;;;;;;;22.38;10.55;;;11.00;99.90;;;;;;5070476;28;20064;-57
2021/09/28 00:34:34;;;;;;;22.63;9.82;;;11.00;99.90;;;;;;5058826;28;20128;-59
2021/09/28 00:37:00;;;;;;;26.88;11.10;;;11.00;99.90;;;;;;5059722;28;20122;-55
2021/09/28 00:39:26;;;;;;;27.35;10.15;;;10.90;99.90;;;;;;5060771;28;20096;-58
2021/09/28 00:41:51;;;;;;;24.88;11.43;;;10.80;99.90;;;;;;5074040;28;20487;-59
2021/09/28 00:44:46;;;;;;;20.75;10.15;;;10.80;99.90;;;;;;5060671;28;20126;-58
2021/09/28 00:47:14;;;;;;;21.50;9.70;;;10.70;99.90;;;;;;5061959;28;20028;-58
2021/09/28 00:49:41;;;;;;;26.38;10.25;;;10.70;99.90;;;;;;5063619;28;20020;-58
2021/09/28 00:52:09;;;;;;;21.60;9.60;;;10.60;99.90;;;;;;5057759;28;20123;-58
2021/09/28 00:54:37;;;;;;;33.65;10.13;;;10.60;99.90;;;;;;5062942;28;20051;-54
2021/09/28 00:57:07;;;;;;;18.58;9.32;;;10.60;99.90;;;;;;5057733;28;20028;-57
2021/09/28 00:59:38;;;;;;;19.90;8.80;;;10.60;99.90;;;;;;5056493;28;20035;-58
2021/09/28 01:02:05;;;;;;;23.90;9.13;;;10.60;99.90;;;;;;5043953;28;20409;-60
2021/09/28 01:04:31;;;;;;;24.40;9.23;;;10.50;99.90;;;;;;5064385;28;20478;-56
2021/09/28 01:07:01;;;;;;;17.73;8.35;;;10.50;99.90;;;;;;5062686;28;20032;-59
2021/09/28 01:09:27;;;;;;;26.02;9.90;;;10.50;99.90;;;;;;5059800;28;20028;-58
2021/09/28 01:11:53;;;;;;;22.67;10.38;;;10.50;99.90;;;;;;5076116;28;20397;-56
2021/09/28 01:14:19;;;;;;;16.50;10.07;;;10.50;99.90;;;;;;5070620;28;20055;-58
2021/09/28 01:16:44;;;;;;;26.05;9.73;;;10.50;99.90;;;;;;5081855;28;20075;-60
2021/09/28 01:19:10;;;;;;;25.70;10.55;;;10.50;99.90;;;;;;5071756;28;20044;-60
2021/09/28 01:21:36;;;;;;;18.63;10.77;;;10.50;99.90;;;;;;5071782;28;20081;-58
2021/09/28 01:24:02;;;;;;;23.65;9.80;;;10.40;99.90;;;;;;5067409;28;20024;-57
2021/09/28 01:26:28;;;;;;;25.52;10.32;;;10.40;99.90;;;;;;5062742;28;20094;-56
2021/09/28 01:28:55;;;;;;;19.10;9.57;;;10.40;99.90;;;;;;5065423;28;20036;-58
2021/09/28 01:31:23;;;;;;;19.75;9.35;;;10.40;99.90;;;;;;5063094;28;20029;-59
2021/09/28 01:33:49;;;;;;;23.83;10.07;;;10.30;99.90;;;;;;5071192;28;20405;-59
2021/09/28 01:36:15;;;;;;;21.40;9.68;;;10.30;99.90;;;;;;5068294;28;20044;-57
2021/09/28 01:38:41;;;;;;;26.55;8.05;;;10.30;99.90;;;;;;5072676;28;20528;-59
2021/09/28 01:41:06;;;;;;;15.10;8.48;;;10.20;99.90;;;;;;5071315;28;20516;-59
2021/09/28 01:43:32;;;;;;;20.50;8.40;;;10.20;99.90;;;;;;5071656;28;20544;-54
2021/09/28 01:46:00;;;;;;;20.10;8.63;;;10.10;99.90;;;;;;5067167;28;20025;-58
2021/09/28 01:48:33;;;;;;;20.30;8.25;;;10.10;99.90;;;;;;5078212;28;20020;-54
2021/09/28 01:50:59;;;;;;;16.83;9.00;;;10.10;99.90;;;;;;5073807;28;20031;-54
2021/09/28 01:53:25;;;;;;;25.10;9.32;;;10.10;99.90;;;;;;5061843;28;20133;-57
2021/09/28 01:55:50;;;;;;;18.13;8.80;;;10.10;99.90;;;;;;5063841;28;20420;-60
2021/09/28 01:58:17;;;;;;;25.70;10.40;;;10.10;99.90;;;;;;5061482;28;20048;-57
2021/09/28 02:00:43;;;;;;;25.50;9.32;;;10.00;99.90;;;;;;5069943;28;20457;-60
2021/09/28 02:03:10;;;;;;;50.63;10.70;;;10.10;99.90;;;;;;5073387;28;20389;-60
2021/09/28 02:05:36;;;;;;;107.30;10.75;;;10.00;99.90;;;;;;5047202;28;20044;-59
2021/09/28 02:08:02;;;;;;;172.30;14.32;;;10.10;99.90;;;;;;5064666;28;20051;-60
2021/09/28 02:10:28;;;;;;;82.80;10.63;;;10.10;99.90;;;;;;5066166;28;20036;-56
2021/09/28 02:12:53;;;;;;;55.15;9.30;;;10.10;99.90;;;;;;5072290;28;20033;-56
2021/09/28 02:15:19;;;;;;;55.30;9.20;;;10.00;99.90;;;;;;5061774;28;20032;-60
2021/09/28 02:17:44;;;;;;;17.25;8.13;;;10.00;99.90;;;;;;5070934;28;20024;-59
2021/09/28 02:20:10;;;;;;;20.08;8.95;;;9.90;99.90;;;;;;5067979;28;20036;-60
2021/09/28 02:22:36;;;;;;;23.33;10.18;;;9.90;99.90;;;;;;5069906;28;20425;-58
2021/09/28 02:25:01;;;;;;;24.58;8.90;;;9.90;99.90;;;;;;5065482;28;20028;-59
2021/09/28 02:27:28;;;;;;;22.17;9.38;;;9.80;99.90;;;;;;5061224;28;20396;-58
2021/09/28 02:29:54;;;;;;;18.88;9.25;;;9.80;99.90;;;;;;5066294;28;20111;-59
2021/09/28 02:32:20;;;;;;;21.00;8.88;;;9.80;99.90;;;;;;5073082;28;20107;-59
2021/09/28 02:34:45;;;;;;;15.23;7.55;;;9.80;99.90;;;;;;5070068;28;20078;-59
2021/09/28 02:37:12;;;;;;;25.65;7.72;;;9.80;99.90;;;;;;5057025;28;20051;-53
2021/09/28 02:39:40;;;;;;;17.83;8.13;;;9.80;99.90;;;;;;5069512;28;20624;-55
2021/09/28 02:42:09;;;;;;;19.92;7.35;;;9.80;99.90;;;;;;5055711;28;20560;-57
2021/09/28 02:44:36;;;;;;;24.02;9.10;;;9.80;99.90;;;;;;5064064;28;20029;-59
2021/09/28 02:47:02;;;;;;;12.80;7.75;;;9.80;99.90;;;;;;5080742;28;20032;-60
2021/09/28 02:49:28;;;;;;;17.65;8.40;;;9.80;99.90;;;;;;5076687;28;20119;-59
2021/09/28 02:51:53;;;;;;;21.00;8.90;;;9.80;99.90;;;;;;5073266;28;20100;-60
2021/09/28 02:54:19;;;;;;;19.20;8.20;;;9.80;99.90;;;;;;5066585;28;20489;-51
2021/09/28 02:56:44;;;;;;;15.45;8.18;;;9.80;99.90;;;;;;5077491;28;20040;-59
2021/09/28 02:59:10;;;;;;;16.20;8.77;;;9.80;99.90;;;;;;5068489;28;20047;-57
2021/09/28 03:01:35;;;;;;;13.30;7.50;;;9.80;99.90;;;;;;5066034;28;20041;-60
2021/09/28 03:04:01;;;;;;;15.00;9.02;;;9.70;99.90;;;;;;5060526;28;20034;-61
2021/09/28 03:06:26;;;;;;;17.05;9.70;;;9.70;99.90;;;;;;5054611;28;20072;-57
2021/09/28 03:08:52;;;;;;;21.83;9.18;;;9.70;99.90;;;;;;5072604;28;20047;-60
2021/09/28 03:11:17;;;;;;;16.40;8.60;;;9.70;99.90;;;;;;5066829;28;20032;-56
2021/09/28 03:13:43;;;;;;;13.90;9.00;;;9.70;99.90;;;;;;5075758;28;20486;-59
2021/09/28 03:16:09;;;;;;;17.15;9.05;;;9.60;99.90;;;;;;5081167;28;20036;-57
2021/09/28 03:18:34;;;;;;;18.38;8.23;;;9.60;99.90;;;;;;5065275;28;20083;-58
2021/09/28 03:21:00;;;;;;;15.02;7.63;;;9.60;99.90;;;;;;5079601;28;20095;-56
2021/09/28 03:23:25;;;;;;;16.02;7.65;;;9.60;99.90;;;;;;5081793;28;20485;-58
2021/09/28 03:25:51;;;;;;;11.50;8.13;;;9.60;99.90;;;;;;5067756;28;20039;-58
2021/09/28 03:28:17;;;;;;;18.13;7.70;;;9.60;99.90;;;;;;5074185;28;20047;-58
2021/09/28 03:30:43;;;;;;;17.65;8.63;;;9.50;99.90;;;;;;5076575;28;20039;-58
2021/09/28 03:33:09;;;;;;;19.85;8.00;;;9.60;99.90;;;;;;5075786;28;20033;-60
2021/09/28 03:35:34;;;;;;;17.13;8.10;;;9.50;99.90;;;;;;5065016;28;20516;-57
2021/09/28 03:38:00;;;;;;;15.93;7.53;;;9.50;99.90;;;;;;5082408;28;20084;-57
2021/09/28 03:40:29;;;;;;;17.73;7.25;;;9.50;99.90;;;;;;5084106;28;20489;-59
2021/09/28 03:42:55;;;;;;;16.23;7.53;;;9.50;99.90;;;;;;5079097;28;20481;-56
2021/09/28 03:45:21;;;;;;;17.95;7.88;;;9.40;99.90;;;;;;5075533;28;20031;-58
2021/09/28 03:47:46;;;;;;;20.88;7.75;;;9.40;99.90;;;;;;5081114;28;20036;-55
2021/09/28 03:50:12;;;;;;;14.40;7.30;;;9.40;99.90;;;;;;5078354;28;20040;-58
2021/09/28 03:52:38;;;;;;;21.50;7.05;;;9.40;99.90;;;;;;5086883;28;20028;-58
2021/09/28 03:55:04;;;;;;;16.27;6.78;;;9.40;99.90;;;;;;5075717;28;20519;-58
2021/09/28 03:57:30;;;;;;;23.63;7.30;;;9.40;99.90;;;;;;5068350;28;20025;-58
2021/09/28 03:59:56;;;;;;;16.85;7.15;;;9.30;99.90;;;;;;5069583;28;20027;-57
2021/09/28 04:02:22;;;;;;;19.48;7.07;;;9.30;99.90;;;;;;5077068;28;20029;-57
2021/09/28 04:04:47;;;;;;;15.45;6.82;;;9.40;99.90;;;;;;5072425;28;20405;-59
2021/09/28 04:07:14;;;;;;;15.43;6.35;;;9.30;99.90;;;;;;5061195;28;20055;-58
2021/09/28 04:09:39;;;;;;;13.20;6.68;;;9.30;99.90;;;;;;5071611;28;20056;-56
2021/09/28 04:12:07;;;;;;;18.10;7.78;;;9.30;99.90;;;;;;5085745;28;20056;-60
2021/09/28 04:14:32;;;;;;;16.73;7.35;;;9.30;99.90;;;;;;5077877;28;20025;-60
2021/09/28 04:16:58;;;;;;;17.90;7.20;;;9.30;99.90;;;;;;5074697;28;20071;-59
2021/09/28 04:19:24;;;;;;;13.65;8.13;;;9.30;99.90;;;;;;5067686;28;20089;-55
2021/09/28 04:21:49;;;;;;;18.75;7.50;;;9.20;99.90;;;;;;5086915;28;20020;-56
2021/09/28 04:24:15;;;;;;;13.57;7.65;;;9.20;99.90;;;;;;5078591;28;20446;-59
2021/09/28 04:26:40;;;;;;;15.10;7.63;;;9.10;99.90;;;;;;5074757;28;20591;-59
2021/09/28 04:29:06;;;;;;;16.20;8.50;;;9.10;99.90;;;;;;5072841;28;20024;-59
2021/09/28 04:31:32;;;;;;;24.85;8.13;;;9.10;99.90;;;;;;5074215;28;20032;-57
2021/09/28 04:33:58;;;;;;;43.80;8.98;;;9.00;99.90;;;;;;5083449;28;20024;-59
2021/09/28 04:36:23;;;;;;;53.80;9.35;;;9.00;99.90;;;;;;5066852;28;20032;-54
2021/09/28 04:38:49;;;;;;;23.60;7.88;;;9.00;99.90;;;;;;5064818;28;20035;-59
2021/09/28 04:41:15;;;;;;;30.52;9.00;;;9.00;99.90;;;;;;5082007;28;20138;-58
2021/09/28 04:43:41;;;;;;;19.23;8.68;;;9.00;99.90;;;;;;5085242;28;20135;-57
2021/09/28 04:46:06;;;;;;;15.32;7.53;;;8.90;99.90;;;;;;5064072;28;20032;-59
2021/09/28 04:48:32;;;;;;;16.08;6.47;;;8.80;99.90;;;;;;5069269;28;20401;-58
2021/09/28 04:50:58;;;;;;;11.93;6.60;;;8.80;99.90;;;;;;5069056;28;20040;-59
2021/09/28 04:53:24;;;;;;;10.98;6.53;;;8.80;99.90;;;;;;5078189;28;20020;-57
2021/09/28 04:55:54;;;;;;;12.40;6.03;;;8.80;99.90;;;;;;5073168;28;20031;-59
2021/09/28 04:58:23;;;;;;;15.23;6.25;;;8.70;99.90;;;;;;5063828;28;20478;-56
2021/09/28 05:00:49;;;;;;;12.93;5.88;;;8.70;99.90;;;;;;5070813;28;20385;-58
2021/09/28 05:03:15;;;;;;;13.63;6.05;;;8.70;99.90;;;;;;5061601;28;20036;-59
2021/09/28 05:05:41;;;;;;;10.65;5.45;;;8.60;99.90;;;;;;5050712;28;20036;-57
2021/09/28 05:08:06;;;;;;;11.88;5.45;;;8.60;99.90;;;;;;5070293;28;20046;-59
2021/09/28 05:10:32;;;;;;;14.90;6.15;;;8.60;99.90;;;;;;5075628;28;20024;-59
2021/09/28 05:12:57;;;;;;;17.92;7.20;;;8.60;99.90;;;;;;5077023;28;20422;-59
2021/09/28 05:15:23;;;;;;;12.20;6.15;;;8.60;99.90;;;;;;5077429;28;20024;-58
2021/09/28 05:17:49;;;;;;;13.52;6.93;;;8.60;99.90;;;;;;5082553;28;20508;-57
2021/09/28 05:20:14;;;;;;;13.60;5.95;;;8.60;99.90;;;;;;5067019;28;20030;-58
2021/09/28 05:22:40;;;;;;;20.38;5.80;;;8.60;99.90;;;;;;5076273;28;20028;-59
2021/09/28 05:25:06;;;;;;;13.73;5.55;;;8.60;99.90;;;;;;5065451;28;20031;-55
2021/09/28 05:27:32;;;;;;;11.27;5.75;;;8.60;99.90;;;;;;5076408;28;20057;-53
2021/09/28 05:29:57;;;;;;;17.67;7.47;;;8.50;99.90;;;;;;5065236;28;20481;-60
2021/09/28 05:32:23;;;;;;;20.63;7.95;;;8.60;99.90;;;;;;5072543;28;20456;-56
2021/09/28 05:34:48;;;;;;;19.48;8.55;;;8.60;99.90;;;;;;5059304;28;20017;-58
2021/09/28 05:37:14;;;;;;;24.95;8.40;;;8.60;99.90;;;;;;5067110;28;20021;-58
2021/09/28 05:39:39;;;;;;;19.92;9.35;;;8.70;99.90;;;;;;5067126;28;20405;-56
2021/09/28 05:42:05;;;;;;;22.13;9.25;;;8.70;99.90;;;;;;5057520;28;20023;-60
2021/09/28 05:44:31;;;;;;;24.85;8.02;;;8.70;99.90;;;;;;5065305;28;20024;-59
2021/09/28 05:46:57;;;;;;;77.00;8.35;;;8.80;99.90;;;;;;5064255;28;20036;-58
2021/09/28 05:49:22;;;;;;;54.63;5.80;;;8.70;99.90;;;;;;5064918;28;20043;-58
2021/09/28 05:51:54;;;;;;;85.05;6.47;;;8.80;99.90;;;;;;5062217;28;20025;-58
2021/09/28 05:54:20;;;;;;;60.75;4.05;;;8.70;99.90;;;;;;5075097;28;20024;-57
2021/09/28 05:56:47;;;;;;;76.82;4.78;;;8.70;99.90;;;;;;5075089;28;20379;-60
2021/09/28 05:59:13;;;;;;;116.20;4.68;;;8.70;99.90;;;;;;5072214;28;20032;-59
2021/09/28 06:01:38;;;;;;;27.90;2.88;;;8.70;99.90;;;;;;5066861;28;20029;-59
2021/09/28 06:04:04;;;;;;;85.63;4.28;;;8.70;99.90;;;;;;5070270;28;20012;-60
2021/09/28 06:06:31;;;;;;;65.10;4.15;;;8.70;99.90;;;;;;5049419;28;20045;-59
2021/09/28 06:08:57;;;;;;;173.73;5.32;;;8.70;99.90;;;;;;5073161;28;20468;-58
2021/09/28 06:11:23;;;;;;;69.75;3.25;;;8.70;99.90;;;;;;5073394;28;20033;-58
2021/09/28 06:13:50;;;;;;;62.78;4.05;;;8.70;99.90;;;;;;5074609;28;20039;-58
2021/09/28 06:16:16;;;;;;;66.35;4.43;;;8.80;99.90;;;;;;5071451;28;20094;-59
2021/09/28 06:18:43;;;;;;;36.45;2.88;;;8.90;99.90;;;;;;5075625;28;20059;-58
2021/09/28 06:21:09;;;;;;;42.65;3.28;;;9.00;99.90;;;;;;5074398;28;20110;-59
2021/09/28 06:23:36;;;;;;;12.27;3.60;;;9.00;99.90;;;;;;5081595;28;20020;-56
2021/09/28 06:26:05;;;;;;;6.43;3.20;;;9.20;99.90;;;;;;5064677;28;20032;-57
2021/09/28 06:28:31;;;;;;;8.05;3.42;;;9.30;99.90;;;;;;5069206;28;20030;-55
2021/09/28 06:30:57;;;;;;;8.63;3.28;;;9.40;99.90;;;;;;5068712;28;20040;-59
2021/09/28 06:33:22;;;;;;;5.65;3.15;;;9.50;99.90;;;;;;5074885;28;20474;-57
2021/09/28 06:35:48;;;;;;;6.32;2.63;;;9.60;99.90;;;;;;5063764;28;20094;-54
2021/09/28 06:38:14;;;;;;;5.15;2.75;;;9.90;99.90;;;;;;5062367;28;20096;-57
2021/09/28 06:40:39;;;;;;;3.28;2.40;;;10.20;99.90;;;;;;5074005;28;20028;-57
2021/09/28 06:43:06;;;;;;;5.30;2.63;;;10.80;99.90;;;;;;5067937;28;20016;-58
2021/09/28 06:45:32;;;;;;;7.97;2.80;;;11.40;99.90;;;;;;5065288;28;20645;-60
2021/09/28 06:47:58;;;;;;;4.13;2.33;;;11.80;99.90;;;;;;5065537;28;20089;-58
2021/09/28 06:50:24;;;;;;;5.32;2.13;;;12.30;99.90;;;;;;5067017;28;20680;-55
2021/09/28 06:52:49;;;;;;;3.28;1.70;;;13.00;99.90;;;;;;5073744;28;20077;-59
2021/09/28 06:55:15;;;;;;;7.82;1.85;;;13.80;99.90;;;;;;5065852;28;20037;-59
2021/09/28 06:57:41;;;;;;;2.30;1.65;;;14.30;99.90;;;;;;5056304;28;20044;-60
2021/09/28 07:00:07;;;;;;;6.47;2.03;;;15.20;99.90;;;;;;5068798;28;20524;-57
2021/09/28 07:02:33;;;;;;;6.85;2.05;;;15.40;99.90;;;;;;5067175;28;20024;-60
2021/09/28 07:04:59;;;;;;;8.48;2.05;;;15.70;99.90;;;;;;5071301;28;20374;-57
2021/09/28 07:07:25;;;;;;;4.63;2.03;;;15.00;99.90;;;;;;5043832;28;20056;-59
2021/09/28 07:09:51;;;;;;;7.30;1.88;;;14.20;99.90;;;;;;5071562;28;20035;-58
2021/09/28 07:12:17;;;;;;;7.80;2.45;;;13.80;99.90;;;;;;5079407;28;20041;-60
2021/09/28 07:14:43;;;;;;;4.88;1.90;;;13.30;99.90;;;;;;5066560;28;20480;-58
2021/09/28 07:17:08;;;;;;;7.90;2.47;;;12.90;99.90;;;;;;5074559;28;20035;-59
2021/09/28 07:19:34;;;;;;;9.13;2.97;;;12.80;99.90;;;;;;5063965;28;20029;-58
2021/09/28 07:21:59;;;;;;;11.93;2.88;;;12.60;99.90;;;;;;5078441;28;20017;-60
2021/09/28 07:24:25;;;;;;;7.63;2.50;;;12.30;99.90;;;;;;5079599;28;20436;-55
2021/09/28 07:26:51;;;;;;;6.93;2.25;;;12.30;99.90;;;;;;5080780;28;20020;-58
2021/09/28 07:29:17;;;;;;;4.93;2.50;;;12.20;99.90;;;;;;5062262;28;20032;-58
2021/09/28 07:31:42;;;;;;;13.27;2.58;;;12.30;99.90;;;;;;5077324;28;20042;-59
2021/09/28 07:34:09;;;;;;;6.93;2.15;;;12.40;99.90;;;;;;5079778;28;20714;-60
2021/09/28 07:36:35;;;;;;;5.78;2.20;;;12.50;99.90;;;;;;5071623;28;20103;-61
2021/09/28 07:39:01;;;;;;;5.05;2.40;;;12.30;99.90;;;;;;5062573;28;20719;-58
2021/09/28 07:41:27;;;;;;;11.98;2.50;;;12.40;99.90;;;;;;5077902;28;20024;-59
2021/09/28 07:43:53;;;;;;;10.95;2.20;;;12.60;99.90;;;;;;5083178;28;20025;-60
2021/09/28 07:46:19;;;;;;;5.20;3.53;;;12.70;99.90;;;;;;5079013;28;20034;-60
2021/09/28 07:48:45;;;;;;;10.60;2.13;;;12.80;99.90;;;;;;5080824;28;20378;-59
2021/09/28 07:51:11;;;;;;;9.93;2.17;;;13.00;99.90;;;;;;5084515;28;20070;-60
2021/09/28 07:53:37;;;;;;;12.00;2.13;;;13.00;99.90;;;;;;5064821;28;20035;-60
2021/09/28 07:56:04;;;;;;;8.15;2.20;;;13.00;99.90;;;;;;5070093;28;20032;-57
2021/09/28 07:58:30;;;;;;;7.70;2.08;;;13.00;99.90;;;;;;5068810;28;20033;-60
2021/09/28 08:00:55;;;;;;;9.85;2.67;;;13.10;99.90;;;;;;5083587;28;20035;-60
2021/09/28 08:03:21;;;;;;;4.00;1.63;;;13.30;99.90;;;;;;5081712;28;20028;-58
2021/09/28 08:05:49;;;;;;;12.00;2.20;;;13.30;99.90;;;;;;5047452;28;20045;-58
2021/09/28 08:08:15;;;;;;;11.90;2.20;;;13.40;99.90;;;;;;5079666;28;20469;-54
2021/09/28 08:10:40;;;;;;;8.95;1.95;;;13.60;99.90;;;;;;5077194;28;20051;-58
2021/09/28 08:13:06;;;;;;;6.88;2.20;;;13.80;99.90;;;;;;5079930;28;20429;-59
2021/09/28 08:15:34;;;;;;;13.70;2.00;;;13.90;99.90;;;;;;5058721;28;20505;-58
2021/09/28 08:17:59;;;;;;;9.75;1.98;;;13.90;99.90;;;;;;5078115;28;20489;-61
2021/09/28 08:20:25;;;;;;;10.10;2.20;;;14.00;99.90;;;;;;5065301;28;20040;-58
2021/09/28 08:22:50;;;;;;;10.57;1.80;;;14.10;99.90;;;;;;5080768;28;20032;-59
2021/09/28 08:25:18;;;;;;;8.45;1.50;;;14.40;99.90;;;;;;5077903;28;20028;-59
2021/09/28 08:30:28;;;;;;;4.03;1.52;;;14.80;99.90;;;;;;5071978;28;20113;-59
2021/09/28 08:32:54;;;;;;;7.03;2.08;;;15.00;99.90;;;;;;5071097;28;20495;-57
2021/09/28 08:35:20;;;;;;;9.00;2.13;;;15.10;99.90;;;;;;5080058;28;20039;-58
2021/09/28 08:37:45;;;;;;;9.27;2.00;;;15.20;99.90;;;;;;5075651;28;20035;-57
2021/09/28 08:40:15;;;;;;;4.55;1.75;;;15.30;99.90;;;;;;5072280;28;20042;-58
2021/09/28 08:42:41;;;;;;;7.85;1.70;;;15.50;99.90;;;;;;5082709;28;20020;-59
2021/09/28 08:45:08;;;;;;;12.57;1.80;;;15.60;99.90;;;;;;5079816;28;20024;-61
2021/09/28 08:47:38;;;;;;;10.95;1.92;;;15.70;99.90;;;;;;5076743;28;20037;-59
2021/09/28 08:50:07;;;;;;;9.02;1.98;;;15.40;99.90;;;;;;5066674;28;20066;-58
2021/09/28 08:52:37;;;;;;;9.73;2.28;;;15.40;99.90;;;;;;5062294;28;20061;-59
2021/09/28 08:55:03;;;;;;;4.72;1.60;;;15.60;99.90;;;;;;5075973;28;20490;-60
2021/09/28 08:57:29;;;;;;;10.07;2.45;;;16.00;99.90;;;;;;5083045;28;20039;-61
2021/09/28 08:59:57;;;;;;;8.18;1.83;;;16.80;99.90;;;;;;5072161;28;20032;-61
2021/09/28 09:02:41;;;;;;;7.63;2.15;;;17.30;99.90;;;;;;5084051;28;20012;-60
2021/09/28 09:05:12;;;;;;;7.68;1.55;;;17.80;99.90;;;;;;5068229;28;20536;-59
2021/09/28 09:07:37;;;;;;;6.57;1.60;;;17.90;99.90;;;;;;5067104;28;20136;-61
2021/09/28 09:10:03;;;;;;;7.78;1.27;;;18.10;99.90;;;;;;5071243;28;20059;-60
2021/09/28 09:12:35;;;;;;;11.90;1.70;;;18.20;99.90;;;;;;5075980;28;20146;-61
2021/09/28 09:15:24;;;;;;;6.80;1.85;;;18.00;99.90;;;;;;5066783;28;20024;-62
2021/09/28 09:17:52;;;;;;;6.47;1.45;;;17.70;99.90;;;;;;5069480;28;20114;-61
2021/09/28 09:20:36;;;;;;;7.28;1.35;;;17.90;99.90;;;;;;5069002;28;20036;-61
2021/09/28 09:23:22;;;;;;;7.55;1.70;;;18.20;99.90;;;;;;5060441;28;20097;-61
2021/09/28 09:26:04;;;;;;;8.27;1.38;;;17.80;99.90;;;;;;5064683;28;20052;-60
2021/09/28 09:28:32;;;;;;;11.00;1.80;;;17.90;99.90;;;;;;5072172;28;20487;-59
2021/09/28 09:31:08;;;;;;;13.48;1.95;;;17.90;99.90;;;;;;5075671;28;20031;-60
2021/09/28 09:33:34;;;;;;;9.38;1.83;;;18.10;99.90;;;;;;5064666;28;20482;-61
2021/09/28 09:36:00;;;;;;;8.35;1.73;;;18.40;99.90;;;;;;5065278;28;20035;-59
2021/09/28 09:38:26;;;;;;;5.90;1.67;;;19.00;99.90;;;;;;5071253;28;20398;-55
2021/09/28 09:40:53;;;;;;;10.00;1.95;;;19.40;99.90;;;;;;5078402;28;20485;-59
2021/09/28 09:43:30;;;;;;;9.43;1.88;;;19.50;99.90;;;;;;5077767;28;20056;-59
2021/09/28 09:46:13;;;;;;;10.25;1.55;;;19.70;99.90;;;;;;5078347;28;20031;-62
2021/09/28 09:48:41;;;;;;;;;;;19.60;99.90;;;;;;5071565;28;20082;-60
2021/09/28 09:51:12;;;;;;;13.70;2.80;;;19.20;99.90;;;;;;5071610;28;19994;-61
2021/09/28 09:53:49;;;;;;;8.27;1.75;;;18.70;99.90;;;;;;5068660;28;20020;-60
2021/09/28 09:56:15;;;;;;;8.25;1.40;;;18.40;99.90;;;;;;5076104;28;20062;-60
2021/09/28 09:58:41;;;;;;;7.07;1.55;;;18.30;99.90;;;;;;5077858;28;20037;-61
2021/09/28 10:01:06;;;;;;;6.22;1.50;;;18.20;99.90;;;;;;5081961;28;20076;-58
2021/09/28 10:03:32;;;;;;;6.70;1.40;;;18.00;99.90;;;;;;5077500;28;20033;-61
2021/09/28 10:05:59;;;;;;;7.68;1.75;;;18.40;99.90;;;;;;5061452;28;20090;-60
2021/09/28 10:08:25;;;;;;;14.82;3.38;;;18.60;99.90;;;;;;5078189;28;20032;-58
2021/09/28 10:10:57;;;;;;;5.65;1.77;;;18.80;99.90;;;;;;5078423;28;20082;-60
2021/09/28 10:13:52;;;;;;;7.27;1.27;;;18.50;99.90;;;;;;5076305;28;20036;-60
2021/09/28 10:16:28;;;;;;;8.13;1.60;;;18.30;99.90;;;;;;5077232;28;20372;-57
2021/09/28 10:18:53;;;;;;;6.88;1.45;;;18.10;99.90;;;;;;5081472;28;20568;-61
2021/09/28 10:21:43;;;;;;;8.52;1.67;;;18.50;99.90;;;;;;5044762;28;20116;-60
2021/09/28 10:24:17;;;;;;;6.60;1.60;;;18.50;99.90;;;;;;5067872;28;20020;-60
2021/09/28 10:27:04;;;;;;;8.40;1.70;;;18.80;99.90;;;;;;5072650;28;20032;-58
2021/09/28 10:29:41;;;;;;;6.65;1.98;;;18.80;99.90;;;;;;5059133;28;20036;-60
2021/09/28 10:32:22;;;;;;;10.25;1.83;;;19.00;99.90;;;;;;5067054;28;20023;-59
2021/09/28 10:35:04;;;;;;;5.70;1.17;;;18.80;99.90;;;;;;5066912;28;20044;-61
2021/09/28 10:37:42;;;;;;;10.00;2.88;;;18.60;99.90;;;;;;5073445;28;20031;-59
2021/09/28 10:40:28;;;;;;;9.00;2.78;;;18.90;99.90;;;;;;5062092;28;20037;-57
2021/09/28 10:42:56;;;;;;;8.85;1.52;;;19.00;99.90;;;;;;5068031;28;20037;-58
2021/09/28 10:45:43;;;;;;;12.35;1.92;;;18.40;99.90;;;;;;5069755;28;20096;-60
2021/09/28 10:48:22;;;;;;;8.23;1.73;;;18.70;99.90;;;;;;5068988;28;20083;-58
2021/09/28 10:51:10;;;;;;;8.30;1.88;;;18.90;99.90;;;;;;5085002;28;20080;-59
2021/09/28 10:53:38;;;;;;;6.28;1.40;;;19.00;99.90;;;;;;5069824;28;20025;-59
2021/09/28 10:56:12;;;;;;;11.65;2.13;;;19.30;99.90;;;;;;5066222;28;20028;-60
2021/09/28 10:58:51;;;;;;;;;;;19.50;99.90;;;;;;5075422;28;20027;-59
2021/09/28 11:01:18;;;;;;;8.40;2.00;;;19.50;99.90;;;;;;5066794;28;19966;-59
2021/09/28 11:03:55;;;;;;;10.75;1.70;;;19.40;99.90;;;;;;5064593;28;20016;-54
2021/09/28 11:06:49;;;;;;;10.75;1.70;;;19.60;99.30;;;;;;5048776;28;20054;-59
2021/09/28 11:09:17;;;;;;;7.20;1.55;;;19.20;99.90;;;;;;5065983;28;20036;-61
2021/09/28 11:11:47;;;;;;;10.82;2.20;;;19.20;99.90;;;;;;5071293;28;20052;-60
2021/09/28 11:14:13;;;;;;;9.23;1.60;;;19.30;99.90;;;;;;5073943;28;20047;-58
2021/09/28 11:16:45;;;;;;;10.48;1.77;;;19.10;99.90;;;;;;5067833;28;20169;-55
2021/09/28 11:19:11;;;;;;;6.57;1.50;;;19.30;99.90;;;;;;5077589;28;20086;-59
2021/09/28 11:21:41;;;;;;;10.55;1.77;;;19.10;99.90;;;;;;5075650;28;20025;-59
2021/09/28 11:24:07;;;;;;;12.02;2.38;;;19.30;99.90;;;;;;5072341;28;20030;-60
2021/09/28 11:26:39;;;;;;;7.38;1.55;;;19.40;99.80;;;;;;5075544;28;20112;-56
2021/09/28 11:29:06;;;;;;;4.97;2.08;;;19.40;98.60;;;;;;5071631;28;20028;-58
2021/09/28 11:31:37;;;;;;;12.18;2.13;;;19.40;99.90;;;;;;5070336;28;20029;-59
2021/09/28 11:34:03;;;;;;;7.00;1.80;;;19.40;99.90;;;;;;5073452;28;20031;-60
2021/09/28 11:36:39;;;;;;;4.57;1.60;;;19.50;99.90;;;;;;5077958;28;20029;-51
2021/09/28 11:39:07;;;;;;;9.00;1.95;;;19.00;99.90;;;;;;5074355;28;20467;-58
2021/09/28 11:41:37;;;;;;;4.90;1.63;;;19.10;99.90;;;;;;5077487;28;20030;-59
2021/09/28 11:44:03;;;;;;;7.03;2.22;;;19.20;99.90;;;;;;5077778;28;20407;-59
2021/09/28 11:46:32;;;;;;;8.32;2.10;;;19.10;99.90;;;;;;5071570;28;20082;-57
2021/09/28 11:49:06;;;;;;;12.50;3.45;;;19.00;99.90;;;;;;5074688;28;20371;-60
2021/09/28 11:51:41;;;;;;;10.25;1.75;;;19.00;99.90;;;;;;5077954;28;20539;-60
2021/09/28 11:54:17;;;;;;;11.23;1.70;;;19.10;99.90;;;;;;5069548;28;20794;-58
2021/09/28 11:56:45;;;;;;;10.50;1.90;;;19.10;99.90;;;;;;5068080;28;20112;-59
2021/09/28 11:59:20;;;;;;;7.88;2.55;;;19.00;99.90;;;;;;5082082;28;20416;-57
2021/09/28 12:01:47;;;;;;;13.52;1.55;;;19.00;99.90;;;;;;5071436;28;20021;-60
2021/09/28 12:04:20;;;;;;;8.35;2.20;;;19.00;99.90;;;;;;5084102;28;20074;-59
2021/09/28 12:07:56;;;;;;;6.90;1.52;;;19.00;99.90;;;;;;5047733;28;20099;-57
2021/09/28 12:09:59;;;;;;;9.88;1.83;;;19.20;99.90;;;;;;5083541;28;20031;-60
2021/09/28 12:12:26;;;;;;;5.85;1.40;;;19.20;99.90;;;;;;5075395;28;20429;-59
2021/09/28 12:14:55;;;;;;;14.48;2.65;;;19.10;99.90;;;;;;5077899;28;20024;-59
2021/09/28 12:17:30;;;;;;;13.43;3.97;;;19.00;99.80;;;;;;5081008;28;20119;-54
2021/09/28 12:20:00;;;;;;;6.93;1.58;;;18.80;99.90;;;;;;5084513;28;20048;-60
2021/09/28 12:22:27;;;;;;;6.30;1.65;;;18.80;99.90;;;;;;5069919;28;20017;-59
2021/09/28 12:24:53;;;;;;;9.88;2.20;;;18.80;99.90;;;;;;5079057;28;20024;-60
2021/09/28 12:27:24;;;;;;;10.40;2.00;;;18.70;99.90;;;;;;5069194;28;20182;-58
2021/09/28 12:29:51;;;;;;;15.15;3.40;;;18.50;99.90;;;;;;5073513;28;20103;-59
2021/09/28 12:32:25;;;;;;;8.45;1.58;;;18.40;99.90;;;;;;5077521;28;20103;-60
2021/09/28 12:34:57;;;;;;;3.97;1.30;;;18.10;99.90;;;;;;5069193;28;20029;-60
2021/09/28 12:37:24;;;;;;;9.25;1.70;;;18.20;99.90;;;;;;5072034;28;20478;-60
2021/09/28 12:40:08;;;;;;;8.73;1.60;;;18.20;99.90;;;;;;5076977;28;20128;-59
2021/09/28 12:42:36;;;;;;;6.38;1.30;;;18.20;99.90;;;;;;5082240;28;20054;-60
2021/09/28 12:45:06;;;;;;;7.82;1.52;;;18.30;99.90;;;;;;5082535;28;20422;-56
2021/09/28 12:47:40;;;;;;;9.77;1.90;;;18.40;99.90;;;;;;5078881;28;20035;-58
2021/09/28 12:50:20;;;;;;;7.22;1.15;;;18.40;99.70;;;;;;5073736;28;20598;-59